sensor_id;sensor_type;location;lat;lon;timestamp;P1;durP1;ratioP1;P2;durP2;ratioP2
12635;SDS011;6383;50.830;7.210;2023-05-10T11:34:07;13.30;;;10.95;;
12635;SDS011;6383;50.830;7.210;2023-05-10T11:36:35;11.38;;;9.63;;
12635;SDS011;6383;50.830;7.210;2023-05-10T11:39:03;12.27;;;9.38;;
12635;SDS011;6383;50.830;7.210;2023-05-10T11:41:32;13.00;;;9.10;;
12635;SDS011;6383;50.830;7.210;2023-05-10T11:44:02;9.20;;;8.30;;
12635;SDS011;6383;50.830;7.210;2023-05-10T11:46:31;9.32;;;8.20;;
12635;SDS011;6383;50.830;7.210;2023-05-10T11:49:00;9.18;;;7.85;;
12635;SDS011;6383;50.830;7.210;2023-05-10T11:51:34;9.88;;;7.28;;
12635;SDS011;6383;50.830;7.210;2023-05-10T11:54:05;7.65;;;6.95;;
12635;SDS011;6383;50.830;7.210;2023-05-10T11:56:34;9.55;;;6.97;;
12635;SDS011;6383;50.830;7.210;2023-05-10T11:59:04;7.27;;;6.57;;
12635;SDS011;6383;50.830;7.210;2023-05-10T12:01:32;7.05;;;6.28;;
12635;SDS011;6383;50.830;7.210;2023-05-10T12:04:02;6.70;;;6.00;;
12635;SDS011;6383;50.830;7.210;2023-05-10T12:06:31;6.22;;;5.63;;
12635;SDS011;6383;50.830;7.210;2023-05-10T12:09:06;6.68;;;5.43;;
12635;SDS011;6383;50.830;7.210;2023-05-10T12:11:36;7.55;;;4.38;;
12635;SDS011;6383;50.830;7.210;2023-05-10T12:14:04;5.22;;;3.58;;
12635;SDS011;6383;50.830;7.210;2023-05-10T12:16:34;5.70;;;3.70;;
12635;SDS011;6383;50.830;7.210;2023-05-10T12:19:03;4.10;;;3.50;;
12635;SDS011;6383;50.830;7.210;2023-05-10T12:21:32;6.60;;;3.50;;
12635;SDS011;6383;50.830;7.210;2023-05-10T12:24:02;3.08;;;2.88;;
12635;SDS011;6383;50.830;7.210;2023-05-10T12:26:33;3.22;;;2.92;;
12635;SDS011;6383;50.830;7.210;2023-05-10T12:29:13;4.47;;;2.90;;
12635;SDS011;6383;50.830;7.210;2023-05-10T12:31:53;2.78;;;2.58;;
12635;SDS011;6383;50.830;7.210;2023-05-10T12:34:24;3.28;;;2.60;;
12635;SDS011;6383;50.830;7.210;2023-05-10T12:36:54;3.03;;;2.70;;
12635;SDS011;6383;50.830;7.210;2023-05-10T12:39:23;5.32;;;2.80;;
12635;SDS011;6383;50.830;7.210;2023-05-10T12:41:52;2.97;;;2.53;;
12635;SDS011;6383;50.830;7.210;2023-05-10T12:44:21;2.30;;;2.20;;
12635;SDS011;6383;50.830;7.210;2023-05-10T12:46:50;3.72;;;2.35;;
12635;SDS011;6383;50.830;7.210;2023-05-10T12:49:18;4.35;;;2.58;;
12635;SDS011;6383;50.830;7.210;2023-05-10T12:51:47;3.30;;;2.67;;
12635;SDS011;6383;50.830;7.210;2023-05-10T12:54:16;2.97;;;2.53;;
12635;SDS011;6383;50.830;7.210;2023-05-10T12:56:44;3.72;;;2.53;;
12635;SDS011;6383;50.830;7.210;2023-05-10T12:59:14;2.73;;;2.40;;
12635;SDS011;6383;50.830;7.210;2023-05-10T13:01:42;4.50;;;2.30;;
12635;SDS011;6383;50.830;7.210;2023-05-10T13:04:10;2.15;;;2.00;;
12635;SDS011;6383;50.830;7.210;2023-05-10T13:06:39;2.50;;;1.90;;
12635;SDS011;6383;50.830;7.210;2023-05-10T13:09:07;2.22;;;1.88;;
12635;SDS011;6383;50.830;7.210;2023-05-10T13:11:35;2.13;;;1.92;;
12635;SDS011;6383;50.830;7.210;2023-05-10T13:14:05;3.20;;;1.90;;
12635;SDS011;6383;50.830;7.210;2023-05-10T13:16:38;3.13;;;1.20;;
12635;SDS011;6383;50.830;7.210;2023-05-10T13:19:10;2.30;;;1.45;;
12635;SDS011;6383;50.830;7.210;2023-05-10T13:21:40;1.65;;;1.35;;
12635;SDS011;6383;50.830;7.210;2023-05-10T13:24:09;2.53;;;1.58;;
12635;SDS011;6383;50.830;7.210;2023-05-10T13:26:41;3.90;;;1.50;;
12635;SDS011;6383;50.830;7.210;2023-05-10T13:29:13;1.57;;;1.47;;
12635;SDS011;6383;50.830;7.210;2023-05-10T13:31:47;2.13;;;1.92;;
12635;SDS011;6383;50.830;7.210;2023-05-10T13:34:16;3.05;;;1.40;;
12635;SDS011;6383;50.830;7.210;2023-05-10T13:36:49;1.63;;;1.52;;
12635;SDS011;6383;50.830;7.210;2023-05-10T13:39:23;1.50;;;1.40;;
12635;SDS011;6383;50.830;7.210;2023-05-10T13:41:54;2.25;;;1.30;;
12635;SDS011;6383;50.830;7.210;2023-05-10T13:44:23;1.85;;;1.20;;
12635;SDS011;6383;50.830;7.210;2023-05-10T13:46:55;2.97;;;1.58;;
12635;SDS011;6383;50.830;7.210;2023-05-10T13:49:22;2.88;;;1.73;;
12635;SDS011;6383;50.830;7.210;2023-05-10T13:51:50;1.30;;;1.20;;
12635;SDS011;6383;50.830;7.210;2023-05-10T13:54:20;2.45;;;1.40;;
12635;SDS011;6383;50.830;7.210;2023-05-10T13:56:49;2.85;;;1.80;;
12635;SDS011;6383;50.830;7.210;2023-05-10T13:59:17;4.43;;;2.03;;
12635;SDS011;6383;50.830;7.210;2023-05-10T14:01:47;2.20;;;1.58;;
12635;SDS011;6383;50.830;7.210;2023-05-10T14:04:17;1.77;;;1.52;;
12635;SDS011;6383;50.830;7.210;2023-05-10T14:06:46;2.00;;;1.55;;
12635;SDS011;6383;50.830;7.210;2023-05-10T14:09:15;6.80;;;1.70;;
12635;SDS011;6383;50.830;7.210;2023-05-10T14:11:45;8.73;;;1.90;;
12635;SDS011;6383;50.830;7.210;2023-05-10T14:14:12;2.22;;;2.03;;
12635;SDS011;6383;50.830;7.210;2023-05-10T14:16:42;2.27;;;1.73;;
12635;SDS011;6383;50.830;7.210;2023-05-10T14:19:12;3.30;;;2.30;;
12635;SDS011;6383;50.830;7.210;2023-05-10T14:21:48;2.60;;;2.40;;
12635;SDS011;6383;50.830;7.210;2023-05-10T14:24:30;3.13;;;2.20;;
12635;SDS011;6383;50.830;7.210;2023-05-10T14:27:00;4.78;;;2.88;;
12635;SDS011;6383;50.830;7.210;2023-05-10T14:29:32;6.03;;;2.80;;
12635;SDS011;6383;50.830;7.210;2023-05-10T14:32:00;8.20;;;2.60;;
12635;SDS011;6383;50.830;7.210;2023-05-10T14:34:30;5.05;;;3.00;;
12635;SDS011;6383;50.830;7.210;2023-05-10T14:37:09;3.92;;;2.85;;
12635;SDS011;6383;50.830;7.210;2023-05-10T14:39:55;5.95;;;2.60;;
12635;SDS011;6383;50.830;7.210;2023-05-10T14:42:27;3.22;;;1.95;;
12635;SDS011;6383;50.830;7.210;2023-05-10T14:44:57;2.50;;;2.13;;
12635;SDS011;6383;50.830;7.210;2023-05-10T14:47:26;3.22;;;2.40;;
12635;SDS011;6383;50.830;7.210;2023-05-10T14:49:55;3.50;;;2.50;;
12635;SDS011;6383;50.830;7.210;2023-05-10T14:52:27;7.50;;;3.30;;
12635;SDS011;6383;50.830;7.210;2023-05-10T14:55:07;4.40;;;2.42;;
12635;SDS011;6383;50.830;7.210;2023-05-10T14:57:35;3.60;;;2.00;;
12635;SDS011;6383;50.830;7.210;2023-05-10T15:00:05;4.68;;;2.40;;
12635;SDS011;6383;50.830;7.210;2023-05-10T15:02:44;2.30;;;2.00;;
12635;SDS011;6383;50.830;7.210;2023-05-10T15:05:18;2.10;;;1.73;;
12635;SDS011;6383;50.830;7.210;2023-05-10T15:07:47;2.53;;;2.20;;
12635;SDS011;6383;50.830;7.210;2023-05-10T15:10:16;5.20;;;2.17;;
12635;SDS011;6383;50.830;7.210;2023-05-10T15:12:43;3.95;;;2.20;;
12635;SDS011;6383;50.830;7.210;2023-05-10T15:15:13;4.53;;;2.50;;
12635;SDS011;6383;50.830;7.210;2023-05-10T15:17:47;6.45;;;3.47;;
12635;SDS011;6383;50.830;7.210;2023-05-10T15:20:22;4.67;;;2.43;;
12635;SDS011;6383;50.830;7.210;2023-05-10T15:22:55;2.42;;;2.00;;
12635;SDS011;6383;50.830;7.210;2023-05-10T15:25:29;2.93;;;1.83;;
12635;SDS011;6383;50.830;7.210;2023-05-10T15:28:01;3.40;;;1.90;;
12635;SDS011;6383;50.830;7.210;2023-05-10T15:30:29;4.50;;;1.80;;
12635;SDS011;6383;50.830;7.210;2023-05-10T15:33:00;3.00;;;2.05;;
12635;SDS011;6383;50.830;7.210;2023-05-10T15:35:31;2.15;;;1.98;;
12635;SDS011;6383;50.830;7.210;2023-05-10T15:38:20;2.13;;;1.80;;
12635;SDS011;6383;50.830;7.210;2023-05-10T15:40:49;4.82;;;1.88;;
12635;SDS011;6383;50.830;7.210;2023-05-10T15:43:18;1.50;;;1.40;;
12635;SDS011;6383;50.830;7.210;2023-05-10T15:45:49;2.55;;;1.63;;
